DeKalb Peachtree Airport
KPDK : now visible

Airfield :











YOU CAN JOIN US ON...

 
LOGIN :

Register | Disclaimer

   EN    FR    IT 

 









Legend :    VFR   Marginal VFR   IFR   Intensive IFR   Very Intensive IFR
Visi :
Ceiling :
>= 8 km
>= 3000ft
5 to 8 km
1000 to 3000 ft
1500m to 5 km
500 to 1000 ft
800 to 1500m
200 to 500 ft
< 800m
< 200 ft
Symbols :   Thunderstorms  Fog  Heavy snow  Heavy precipitations  Wind > 20 kt






- Airport Elevation : 1003 ft


KPDK - DeKalb Peachtree

CURRENT METAR :
  • 161153Z 23005KT 10SM CLR 24/21 A3004 RMK AO2 SLP157 70001 T02390211 10239 20222 51008

EXPIRED METARs :
  • 161053Z 22003KT 10SM CLR 22/21 A3004 RMK AO2 SLP156 T02220211
  • 160953Z AUTO 32003KT 10SM CLR 23/21 A3003 RMK AO2 SLP154 T02280211
  • 160853Z 20003KT 10SM CLR 22/21 A3002 RMK AO2 SLP148 T02220211 56002
  • 160753Z 30003KT 10SM CLR 23/21 A3002 RMK AO2 SLP146 T02280211

TAF KPDK
Valid from the 16 at 12:00 until the 17 at 12:00 UTC


161130Z 1612/1712 VRB03KT P6SM SCT200
FM161700 27007KT P6SM VCSH SCT060
TEMPO 1619/1623 VRB12G25KT 3SM TSRA BR BKN050CB
FM170000 VRB04KT P6SM FEW080 BKN120
FM170600 22004KT P6SM VCSH SCT050 BKN080
KZTL FIR / North America



MET'MAP, your aeronautical weather chart ! - Copyright ORBIFLY December 2007 - Disclaimer

ORBIFLY MET'MAP TEAM :

Programming & Development : Alexandra Zaïnal
Original concept : Baudouin d'Aumeries
Technical & hardware support : Manuel Goepfert
Assistance : Marc-Olivier Méhu




SOURCES & CREDITS :

   NOAA       Earth
Advisory